sensor_id;sensor_type;location;lat;lon;timestamp;P1;durP1;ratioP1;P2;durP2;ratioP2
22070;SDS011;11200;51.488;6.668;2023-07-08T00:02:11;3.60;;;2.90;;
22070;SDS011;11200;51.488;6.668;2023-07-08T00:04:38;3.58;;;2.60;;
22070;SDS011;11200;51.488;6.668;2023-07-08T00:07:05;4.10;;;2.88;;
22070;SDS011;11200;51.488;6.668;2023-07-08T00:09:35;4.82;;;3.13;;
22070;SDS011;11200;51.488;6.668;2023-07-08T00:12:01;3.75;;;2.88;;
22070;SDS011;11200;51.488;6.668;2023-07-08T00:14:26;3.10;;;2.67;;
22070;SDS011;11200;51.488;6.668;2023-07-08T00:16:52;4.18;;;2.97;;
22070;SDS011;11200;51.488;6.668;2023-07-08T00:19:18;3.95;;;2.88;;
22070;SDS011;11200;51.488;6.668;2023-07-08T00:21:47;4.55;;;2.92;;
22070;SDS011;11200;51.488;6.668;2023-07-08T00:24:12;4.65;;;2.97;;
22070;SDS011;11200;51.488;6.668;2023-07-08T00:26:38;4.75;;;3.20;;
22070;SDS011;11200;51.488;6.668;2023-07-08T00:29:11;4.53;;;2.92;;
22070;SDS011;11200;51.488;6.668;2023-07-08T00:31:39;3.65;;;3.03;;
22070;SDS011;11200;51.488;6.668;2023-07-08T00:34:05;4.22;;;3.05;;
22070;SDS011;11200;51.488;6.668;2023-07-08T00:36:30;4.18;;;2.92;;
22070;SDS011;11200;51.488;6.668;2023-07-08T00:38:57;3.10;;;2.67;;
22070;SDS011;11200;51.488;6.668;2023-07-08T00:41:30;3.97;;;3.03;;
22070;SDS011;11200;51.488;6.668;2023-07-08T00:44:03;3.75;;;3.05;;
22070;SDS011;11200;51.488;6.668;2023-07-08T00:49:42;4.30;;;2.83;;
22070;SDS011;11200;51.488;6.668;2023-07-08T00:54:55;3.38;;;2.80;;
22070;SDS011;11200;51.488;6.668;2023-07-08T00:57:28;3.05;;;2.75;;
22070;SDS011;11200;51.488;6.668;2023-07-08T00:59:58;4.25;;;2.92;;
22070;SDS011;11200;51.488;6.668;2023-07-08T01:02:29;4.50;;;3.08;;
22070;SDS011;11200;51.488;6.668;2023-07-08T01:05:07;3.30;;;2.70;;
22070;SDS011;11200;51.488;6.668;2023-07-08T01:07:35;3.75;;;2.90;;
22070;SDS011;11200;51.488;6.668;2023-07-08T01:10:03;3.25;;;2.80;;
22070;SDS011;11200;51.488;6.668;2023-07-08T01:12:37;3.33;;;2.97;;
22070;SDS011;11200;51.488;6.668;2023-07-08T01:15:07;3.28;;;2.75;;
22070;SDS011;11200;51.488;6.668;2023-07-08T01:17:33;3.22;;;2.83;;
22070;SDS011;11200;51.488;6.668;2023-07-08T01:19:59;3.47;;;2.83;;
22070;SDS011;11200;51.488;6.668;2023-07-08T01:22:25;3.78;;;3.10;;
22070;SDS011;11200;51.488;6.668;2023-07-08T01:24:57;3.38;;;2.92;;
22070;SDS011;11200;51.488;6.668;2023-07-08T01:27:28;2.92;;;2.60;;
22070;SDS011;11200;51.488;6.668;2023-07-08T01:29:59;2.78;;;2.35;;
22070;SDS011;11200;51.488;6.668;2023-07-08T01:32:26;3.85;;;2.75;;
22070;SDS011;11200;51.488;6.668;2023-07-08T01:34:53;5.93;;;3.10;;
22070;SDS011;11200;51.488;6.668;2023-07-08T01:40:30;2.83;;;2.50;;
22070;SDS011;11200;51.488;6.668;2023-07-08T01:43:00;3.60;;;3.05;;
22070;SDS011;11200;51.488;6.668;2023-07-08T01:45:28;3.47;;;2.85;;
22070;SDS011;11200;51.488;6.668;2023-07-08T01:48:11;3.42;;;2.90;;
22070;SDS011;11200;51.488;6.668;2023-07-08T01:50:42;2.92;;;2.63;;
22070;SDS011;11200;51.488;6.668;2023-07-08T01:53:12;3.90;;;2.90;;
22070;SDS011;11200;51.488;6.668;2023-07-08T01:55:47;3.20;;;2.60;;
22070;SDS011;11200;51.488;6.668;2023-07-08T01:58:13;3.30;;;2.75;;
22070;SDS011;11200;51.488;6.668;2023-07-08T02:00:39;3.50;;;2.70;;
22070;SDS011;11200;51.488;6.668;2023-07-08T02:03:04;3.17;;;2.88;;
22070;SDS011;11200;51.488;6.668;2023-07-08T02:05:30;3.33;;;2.60;;
22070;SDS011;11200;51.488;6.668;2023-07-08T02:07:56;3.78;;;3.10;;
22070;SDS011;11200;51.488;6.668;2023-07-08T02:10:22;3.35;;;2.90;;
22070;SDS011;11200;51.488;6.668;2023-07-08T02:12:48;3.15;;;2.80;;
22070;SDS011;11200;51.488;6.668;2023-07-08T02:15:13;2.80;;;2.53;;
22070;SDS011;11200;51.488;6.668;2023-07-08T02:17:39;2.75;;;2.53;;
22070;SDS011;11200;51.488;6.668;2023-07-08T02:20:04;3.65;;;2.95;;
22070;SDS011;11200;51.488;6.668;2023-07-08T02:22:30;3.05;;;2.75;;
22070;SDS011;11200;51.488;6.668;2023-07-08T02:24:56;3.22;;;2.75;;
22070;SDS011;11200;51.488;6.668;2023-07-08T02:27:22;4.07;;;2.67;;
22070;SDS011;11200;51.488;6.668;2023-07-08T02:29:47;3.88;;;3.03;;
22070;SDS011;11200;51.488;6.668;2023-07-08T02:32:13;3.35;;;3.03;;
22070;SDS011;11200;51.488;6.668;2023-07-08T02:34:38;2.78;;;2.22;;
22070;SDS011;11200;51.488;6.668;2023-07-08T02:37:04;3.10;;;2.72;;
22070;SDS011;11200;51.488;6.668;2023-07-08T02:39:29;3.10;;;2.65;;
22070;SDS011;11200;51.488;6.668;2023-07-08T02:41:55;3.65;;;2.88;;
22070;SDS011;11200;51.488;6.668;2023-07-08T02:44:21;3.15;;;2.63;;
22070;SDS011;11200;51.488;6.668;2023-07-08T02:46:47;3.83;;;2.95;;
22070;SDS011;11200;51.488;6.668;2023-07-08T02:49:13;4.28;;;2.58;;
22070;SDS011;11200;51.488;6.668;2023-07-08T02:51:38;4.00;;;2.90;;
22070;SDS011;11200;51.488;6.668;2023-07-08T02:54:04;3.08;;;2.63;;
22070;SDS011;11200;51.488;6.668;2023-07-08T02:56:30;3.45;;;2.70;;
22070;SDS011;11200;51.488;6.668;2023-07-08T02:58:55;3.47;;;2.78;;
22070;SDS011;11200;51.488;6.668;2023-07-08T03:01:21;3.10;;;2.80;;
22070;SDS011;11200;51.488;6.668;2023-07-08T03:03:48;3.65;;;2.75;;
22070;SDS011;11200;51.488;6.668;2023-07-08T03:06:14;3.47;;;2.90;;
22070;SDS011;11200;51.488;6.668;2023-07-08T03:08:40;3.13;;;2.70;;
22070;SDS011;11200;51.488;6.668;2023-07-08T03:11:06;3.35;;;2.55;;
22070;SDS011;11200;51.488;6.668;2023-07-08T03:13:34;3.85;;;2.65;;
22070;SDS011;11200;51.488;6.668;2023-07-08T03:16:01;3.10;;;2.80;;
22070;SDS011;11200;51.488;6.668;2023-07-08T03:18:27;3.53;;;2.88;;
22070;SDS011;11200;51.488;6.668;2023-07-08T03:20:54;3.65;;;3.00;;
22070;SDS011;11200;51.488;6.668;2023-07-08T03:23:22;2.88;;;2.58;;
22070;SDS011;11200;51.488;6.668;2023-07-08T03:25:48;3.17;;;2.88;;
22070;SDS011;11200;51.488;6.668;2023-07-08T03:28:14;5.15;;;2.75;;
22070;SDS011;11200;51.488;6.668;2023-07-08T03:30:40;3.47;;;2.70;;
22070;SDS011;11200;51.488;6.668;2023-07-08T03:33:07;4.40;;;3.03;;
22070;SDS011;11200;51.488;6.668;2023-07-08T03:35:34;3.17;;;2.88;;
22070;SDS011;11200;51.488;6.668;2023-07-08T03:37:59;3.67;;;2.83;;
22070;SDS011;11200;51.488;6.668;2023-07-08T03:40:25;3.22;;;2.67;;
22070;SDS011;11200;51.488;6.668;2023-07-08T03:42:51;3.90;;;2.60;;
22070;SDS011;11200;51.488;6.668;2023-07-08T03:45:17;3.20;;;2.90;;
22070;SDS011;11200;51.488;6.668;2023-07-08T03:47:42;3.45;;;2.97;;
22070;SDS011;11200;51.488;6.668;2023-07-08T03:50:18;3.95;;;3.00;;
22070;SDS011;11200;51.488;6.668;2023-07-08T03:52:47;3.70;;;3.10;;
22070;SDS011;11200;51.488;6.668;2023-07-08T03:55:13;3.00;;;2.63;;
22070;SDS011;11200;51.488;6.668;2023-07-08T03:57:39;3.35;;;2.78;;
22070;SDS011;11200;51.488;6.668;2023-07-08T04:00:07;2.90;;;2.60;;
22070;SDS011;11200;51.488;6.668;2023-07-08T04:02:34;3.00;;;2.70;;
22070;SDS011;11200;51.488;6.668;2023-07-08T04:05:01;4.22;;;2.75;;
22070;SDS011;11200;51.488;6.668;2023-07-08T04:07:27;3.20;;;2.90;;
22070;SDS011;11200;51.488;6.668;2023-07-08T04:09:52;3.58;;;3.13;;
22070;SDS011;11200;51.488;6.668;2023-07-08T04:12:18;3.13;;;2.83;;
22070;SDS011;11200;51.488;6.668;2023-07-08T04:14:43;3.85;;;2.97;;
22070;SDS011;11200;51.488;6.668;2023-07-08T04:17:09;3.83;;;2.80;;
22070;SDS011;11200;51.488;6.668;2023-07-08T04:19:36;3.10;;;2.80;;
22070;SDS011;11200;51.488;6.668;2023-07-08T04:22:04;3.30;;;2.90;;
22070;SDS011;11200;51.488;6.668;2023-07-08T04:24:30;3.03;;;2.72;;
22070;SDS011;11200;51.488;6.668;2023-07-08T04:26:56;3.10;;;2.80;;
22070;SDS011;11200;51.488;6.668;2023-07-08T04:29:23;3.28;;;2.50;;
22070;SDS011;11200;51.488;6.668;2023-07-08T04:31:49;3.15;;;2.70;;
22070;SDS011;11200;51.488;6.668;2023-07-08T04:34:15;3.38;;;2.45;;
22070;SDS011;11200;51.488;6.668;2023-07-08T04:36:42;3.38;;;2.97;;
22070;SDS011;11200;51.488;6.668;2023-07-08T04:39:08;3.88;;;2.83;;
22070;SDS011;11200;51.488;6.668;2023-07-08T04:41:39;3.38;;;2.88;;
22070;SDS011;11200;51.488;6.668;2023-07-08T04:44:12;3.28;;;2.70;;
22070;SDS011;11200;51.488;6.668;2023-07-08T04:49:06;2.80;;;2.55;;
22070;SDS011;11200;51.488;6.668;2023-07-08T04:51:34;3.67;;;2.97;;
22070;SDS011;11200;51.488;6.668;2023-07-08T04:54:00;3.47;;;2.90;;
22070;SDS011;11200;51.488;6.668;2023-07-08T04:56:34;3.78;;;2.85;;
22070;SDS011;11200;51.488;6.668;2023-07-08T04:59:02;3.30;;;2.90;;
22070;SDS011;11200;51.488;6.668;2023-07-08T05:01:28;3.70;;;2.88;;
22070;SDS011;11200;51.488;6.668;2023-07-08T05:03:54;3.10;;;2.80;;
22070;SDS011;11200;51.488;6.668;2023-07-08T05:06:19;3.15;;;2.78;;
22070;SDS011;11200;51.488;6.668;2023-07-08T05:08:45;3.80;;;3.00;;
22070;SDS011;11200;51.488;6.668;2023-07-08T05:11:11;2.80;;;2.50;;
22070;SDS011;11200;51.488;6.668;2023-07-08T05:13:36;3.63;;;2.78;;
22070;SDS011;11200;51.488;6.668;2023-07-08T05:16:02;3.63;;;2.80;;
22070;SDS011;11200;51.488;6.668;2023-07-08T05:18:28;3.80;;;2.95;;
22070;SDS011;11200;51.488;6.668;2023-07-08T05:20:53;4.10;;;3.10;;
22070;SDS011;11200;51.488;6.668;2023-07-08T05:23:20;3.70;;;2.80;;
22070;SDS011;11200;51.488;6.668;2023-07-08T05:25:46;3.67;;;3.00;;
22070;SDS011;11200;51.488;6.668;2023-07-08T05:28:13;3.90;;;2.80;;
22070;SDS011;11200;51.488;6.668;2023-07-08T05:30:39;2.80;;;2.50;;
22070;SDS011;11200;51.488;6.668;2023-07-08T05:33:06;4.47;;;3.00;;
22070;SDS011;11200;51.488;6.668;2023-07-08T05:35:32;3.78;;;3.00;;
22070;SDS011;11200;51.488;6.668;2023-07-08T05:37:58;3.50;;;2.80;;
22070;SDS011;11200;51.488;6.668;2023-07-08T05:40:24;3.88;;;3.10;;
22070;SDS011;11200;51.488;6.668;2023-07-08T05:42:50;3.88;;;3.05;;
22070;SDS011;11200;51.488;6.668;2023-07-08T05:45:16;3.92;;;3.00;;
22070;SDS011;11200;51.488;6.668;2023-07-08T05:47:42;3.67;;;3.28;;
22070;SDS011;11200;51.488;6.668;2023-07-08T05:50:07;3.97;;;3.25;;
22070;SDS011;11200;51.488;6.668;2023-07-08T05:52:33;4.60;;;3.53;;
22070;SDS011;11200;51.488;6.668;2023-07-08T05:54:59;4.25;;;3.25;;
22070;SDS011;11200;51.488;6.668;2023-07-08T05:57:24;4.10;;;3.45;;
22070;SDS011;11200;51.488;6.668;2023-07-08T05:59:50;5.93;;;3.80;;
22070;SDS011;11200;51.488;6.668;2023-07-08T06:02:16;7.15;;;4.32;;
22070;SDS011;11200;51.488;6.668;2023-07-08T06:04:45;6.72;;;4.53;;
22070;SDS011;11200;51.488;6.668;2023-07-08T06:07:11;8.43;;;4.45;;
22070;SDS011;11200;51.488;6.668;2023-07-08T06:09:36;6.85;;;4.53;;
22070;SDS011;11200;51.488;6.668;2023-07-08T06:12:02;5.93;;;4.07;;
22070;SDS011;11200;51.488;6.668;2023-07-08T06:14:28;6.55;;;4.55;;
22070;SDS011;11200;51.488;6.668;2023-07-08T06:16:53;5.55;;;4.03;;
22070;SDS011;11200;51.488;6.668;2023-07-08T06:19:22;5.85;;;4.50;;
22070;SDS011;11200;51.488;6.668;2023-07-08T06:21:47;6.32;;;4.55;;
22070;SDS011;11200;51.488;6.668;2023-07-08T06:24:13;5.80;;;3.97;;
22070;SDS011;11200;51.488;6.668;2023-07-08T06:26:40;6.50;;;4.28;;
22070;SDS011;11200;51.488;6.668;2023-07-08T06:29:05;7.10;;;4.55;;
22070;SDS011;11200;51.488;6.668;2023-07-08T06:31:31;6.05;;;4.30;;
22070;SDS011;11200;51.488;6.668;2023-07-08T06:33:57;6.35;;;4.43;;
22070;SDS011;11200;51.488;6.668;2023-07-08T06:36:22;6.35;;;4.20;;
22070;SDS011;11200;51.488;6.668;2023-07-08T06:38:48;6.68;;;4.53;;
22070;SDS011;11200;51.488;6.668;2023-07-08T06:41:14;8.75;;;4.97;;
22070;SDS011;11200;51.488;6.668;2023-07-08T06:43:39;8.80;;;5.18;;
22070;SDS011;11200;51.488;6.668;2023-07-08T06:46:05;7.15;;;4.60;;
22070;SDS011;11200;51.488;6.668;2023-07-08T06:48:31;6.85;;;4.57;;
22070;SDS011;11200;51.488;6.668;2023-07-08T06:50:59;8.38;;;4.80;;
22070;SDS011;11200;51.488;6.668;2023-07-08T06:53:24;7.15;;;4.82;;
22070;SDS011;11200;51.488;6.668;2023-07-08T06:55:50;6.72;;;4.72;;
22070;SDS011;11200;51.488;6.668;2023-07-08T06:58:16;5.90;;;4.35;;
22070;SDS011;11200;51.488;6.668;2023-07-08T07:00:42;6.80;;;4.45;;
22070;SDS011;11200;51.488;6.668;2023-07-08T07:03:26;6.63;;;4.75;;
22070;SDS011;11200;51.488;6.668;2023-07-08T07:05:53;6.22;;;4.60;;
22070;SDS011;11200;51.488;6.668;2023-07-08T07:08:22;7.50;;;5.00;;
22070;SDS011;11200;51.488;6.668;2023-07-08T07:10:51;5.97;;;4.22;;
22070;SDS011;11200;51.488;6.668;2023-07-08T07:13:22;7.50;;;4.82;;
22070;SDS011;11200;51.488;6.668;2023-07-08T07:15:53;5.85;;;4.70;;
22070;SDS011;11200;51.488;6.668;2023-07-08T07:18:19;6.13;;;4.55;;
22070;SDS011;11200;51.488;6.668;2023-07-08T07:20:52;6.82;;;4.75;;
22070;SDS011;11200;51.488;6.668;2023-07-08T07:23:22;5.70;;;4.57;;
22070;SDS011;11200;51.488;6.668;2023-07-08T07:25:48;8.35;;;5.25;;
22070;SDS011;11200;51.488;6.668;2023-07-08T07:28:14;6.63;;;4.97;;
22070;SDS011;11200;51.488;6.668;2023-07-08T07:30:41;6.88;;;5.35;;
22070;SDS011;11200;51.488;6.668;2023-07-08T07:33:11;8.70;;;5.32;;
22070;SDS011;11200;51.488;6.668;2023-07-08T07:35:43;6.47;;;4.90;;
22070;SDS011;11200;51.488;6.668;2023-07-08T07:38:10;7.38;;;5.47;;
22070;SDS011;11200;51.488;6.668;2023-07-08T07:40:35;8.13;;;5.47;;
22070;SDS011;11200;51.488;6.668;2023-07-08T07:43:01;7.03;;;5.00;;
22070;SDS011;11200;51.488;6.668;2023-07-08T07:45:27;8.20;;;5.43;;
22070;SDS011;11200;51.488;6.668;2023-07-08T07:47:52;7.20;;;4.97;;
22070;SDS011;11200;51.488;6.668;2023-07-08T07:50:18;6.82;;;4.80;;
22070;SDS011;11200;51.488;6.668;2023-07-08T07:52:44;7.10;;;5.40;;
22070;SDS011;11200;51.488;6.668;2023-07-08T07:55:10;6.57;;;5.13;;
22070;SDS011;11200;51.488;6.668;2023-07-08T07:57:35;6.68;;;5.40;;
22070;SDS011;11200;51.488;6.668;2023-07-08T08:00:01;7.97;;;5.25;;
22070;SDS011;11200;51.488;6.668;2023-07-08T08:02:27;7.10;;;5.10;;
22070;SDS011;11200;51.488;6.668;2023-07-08T08:04:55;5.93;;;5.03;;
22070;SDS011;11200;51.488;6.668;2023-07-08T08:07:22;6.07;;;4.72;;
22070;SDS011;11200;51.488;6.668;2023-07-08T08:09:47;8.38;;;5.28;;
22070;SDS011;11200;51.488;6.668;2023-07-08T08:12:13;5.63;;;4.72;;
22070;SDS011;11200;51.488;6.668;2023-07-08T08:14:38;7.40;;;5.20;;
22070;SDS011;11200;51.488;6.668;2023-07-08T08:17:04;8.18;;;4.90;;
22070;SDS011;11200;51.488;6.668;2023-07-08T08:19:33;5.95;;;4.88;;
22070;SDS011;11200;51.488;6.668;2023-07-08T08:21:58;5.90;;;4.90;;
22070;SDS011;11200;51.488;6.668;2023-07-08T08:24:24;6.55;;;4.78;;
22070;SDS011;11200;51.488;6.668;2023-07-08T08:26:49;5.45;;;4.53;;
22070;SDS011;11200;51.488;6.668;2023-07-08T08:29:15;8.57;;;4.88;;
22070;SDS011;11200;51.488;6.668;2023-07-08T08:31:41;5.57;;;4.93;;
22070;SDS011;11200;51.488;6.668;2023-07-08T08:34:09;5.97;;;5.03;;
22070;SDS011;11200;51.488;6.668;2023-07-08T08:36:35;6.28;;;4.75;;
22070;SDS011;11200;51.488;6.668;2023-07-08T08:39:00;6.00;;;4.82;;
22070;SDS011;11200;51.488;6.668;2023-07-08T08:41:31;7.72;;;5.28;;
22070;SDS011;11200;51.488;6.668;2023-07-08T08:44:00;5.25;;;4.75;;
22070;SDS011;11200;51.488;6.668;2023-07-08T08:46:38;5.40;;;4.68;;
22070;SDS011;11200;51.488;6.668;2023-07-08T08:51:45;6.50;;;5.22;;
22070;SDS011;11200;51.488;6.668;2023-07-08T08:54:12;5.53;;;5.03;;
22070;SDS011;11200;51.488;6.668;2023-07-08T08:59:34;8.48;;;5.78;;
22070;SDS011;11200;51.488;6.668;2023-07-08T09:04:51;7.20;;;5.70;;
22070;SDS011;11200;51.488;6.668;2023-07-08T09:07:18;8.80;;;6.32;;
22070;SDS011;11200;51.488;6.668;2023-07-08T09:09:54;6.72;;;5.57;;
22070;SDS011;11200;51.488;6.668;2023-07-08T09:12:33;6.22;;;5.63;;
22070;SDS011;11200;51.488;6.668;2023-07-08T09:14:59;6.68;;;5.68;;
22070;SDS011;11200;51.488;6.668;2023-07-08T09:17:36;6.90;;;5.82;;
22070;SDS011;11200;51.488;6.668;2023-07-08T09:25:32;7.00;;;6.30;;
22070;SDS011;11200;51.488;6.668;2023-07-08T09:27:58;6.45;;;5.85;;
22070;SDS011;11200;51.488;6.668;2023-07-08T09:30:25;6.53;;;5.50;;
22070;SDS011;11200;51.488;6.668;2023-07-08T09:32:54;7.35;;;6.00;;
22070;SDS011;11200;51.488;6.668;2023-07-08T09:35:24;7.38;;;5.53;;
22070;SDS011;11200;51.488;6.668;2023-07-08T09:37:52;6.22;;;5.63;;
22070;SDS011;11200;51.488;6.668;2023-07-08T09:40:23;6.82;;;5.70;;
22070;SDS011;11200;51.488;6.668;2023-07-08T09:42:58;5.90;;;5.15;;
22070;SDS011;11200;51.488;6.668;2023-07-08T09:45:29;6.03;;;5.30;;
22070;SDS011;11200;51.488;6.668;2023-07-08T09:48:13;6.93;;;5.82;;
22070;SDS011;11200;51.488;6.668;2023-07-08T09:50:42;6.53;;;5.55;;
22070;SDS011;11200;51.488;6.668;2023-07-08T09:53:13;7.38;;;5.10;;
22070;SDS011;11200;51.488;6.668;2023-07-08T09:55:39;7.05;;;5.35;;
22070;SDS011;11200;51.488;6.668;2023-07-08T09:58:05;5.75;;;5.20;;
22070;SDS011;11200;51.488;6.668;2023-07-08T10:00:40;6.47;;;5.60;;
22070;SDS011;11200;51.488;6.668;2023-07-08T10:03:19;5.65;;;5.13;;
22070;SDS011;11200;51.488;6.668;2023-07-08T10:05:48;5.85;;;5.25;;
22070;SDS011;11200;51.488;6.668;2023-07-08T10:08:16;7.47;;;5.47;;
22070;SDS011;11200;51.488;6.668;2023-07-08T10:10:44;7.13;;;5.40;;
22070;SDS011;11200;51.488;6.668;2023-07-08T10:13:44;5.88;;;5.32;;
22070;SDS011;11200;51.488;6.668;2023-07-08T10:16:26;6.25;;;5.20;;
22070;SDS011;11200;51.488;6.668;2023-07-08T10:18:54;6.03;;;5.43;;
22070;SDS011;11200;51.488;6.668;2023-07-08T10:21:27;6.13;;;5.35;;
22070;SDS011;11200;51.488;6.668;2023-07-08T10:26:44;5.32;;;4.82;;
22070;SDS011;11200;51.488;6.668;2023-07-08T10:42:29;4.97;;;4.47;;
22070;SDS011;11200;51.488;6.668;2023-07-08T10:45:31;5.72;;;4.95;;
22070;SDS011;11200;51.488;6.668;2023-07-08T10:48:19;4.90;;;4.35;;
22070;SDS011;11200;51.488;6.668;2023-07-08T10:51:10;5.20;;;4.70;;
22070;SDS011;11200;51.488;6.668;2023-07-08T10:56:55;4.90;;;4.40;;
22070;SDS011;11200;51.488;6.668;2023-07-08T11:07:45;4.72;;;4.28;;
22070;SDS011;11200;51.488;6.668;2023-07-08T11:13:12;4.70;;;4.30;;
22070;SDS011;11200;51.488;6.668;2023-07-08T11:15:49;5.10;;;4.60;;
22070;SDS011;11200;51.488;6.668;2023-07-08T11:18:33;4.57;;;4.07;;
22070;SDS011;11200;51.488;6.668;2023-07-08T11:23:42;5.00;;;4.50;;
22070;SDS011;11200;51.488;6.668;2023-07-08T11:26:47;4.90;;;4.15;;
22070;SDS011;11200;51.488;6.668;2023-07-08T11:29:30;4.63;;;4.18;;
22070;SDS011;11200;51.488;6.668;2023-07-08T11:32:08;4.85;;;4.35;;
22070;SDS011;11200;51.488;6.668;2023-07-08T11:34:39;4.38;;;3.90;;
22070;SDS011;11200;51.488;6.668;2023-07-08T11:37:08;4.35;;;3.95;;
22070;SDS011;11200;51.488;6.668;2023-07-08T11:39:40;4.30;;;3.90;;
22070;SDS011;11200;51.488;6.668;2023-07-08T11:47:38;4.15;;;3.75;;
22070;SDS011;11200;51.488;6.668;2023-07-08T11:52:51;4.45;;;4.05;;
22070;SDS011;11200;51.488;6.668;2023-07-08T11:55:58;4.50;;;4.10;;
22070;SDS011;11200;51.488;6.668;2023-07-08T11:58:27;5.18;;;4.20;;
22070;SDS011;11200;51.488;6.668;2023-07-08T12:00:59;4.95;;;3.92;;
22070;SDS011;11200;51.488;6.668;2023-07-08T12:03:34;4.95;;;4.07;;
22070;SDS011;11200;51.488;6.668;2023-07-08T12:08:53;4.53;;;3.97;;
22070;SDS011;11200;51.488;6.668;2023-07-08T12:11:34;4.70;;;4.20;;
22070;SDS011;11200;51.488;6.668;2023-07-08T12:14:02;4.07;;;3.70;;
22070;SDS011;11200;51.488;6.668;2023-07-08T12:16:29;4.38;;;3.80;;
22070;SDS011;11200;51.488;6.668;2023-07-08T12:18:59;5.07;;;3.70;;
22070;SDS011;11200;51.488;6.668;2023-07-08T12:21:33;4.75;;;4.18;;
22070;SDS011;11200;51.488;6.668;2023-07-08T12:24:03;5.13;;;3.65;;
22070;SDS011;11200;51.488;6.668;2023-07-08T12:26:33;4.50;;;4.10;;
22070;SDS011;11200;51.488;6.668;2023-07-08T12:28:59;4.20;;;3.80;;
22070;SDS011;11200;51.488;6.668;2023-07-08T12:31:24;5.25;;;3.95;;
22070;SDS011;11200;51.488;6.668;2023-07-08T12:33:50;3.90;;;3.58;;
22070;SDS011;11200;51.488;6.668;2023-07-08T12:36:23;4.70;;;3.72;;
22070;SDS011;11200;51.488;6.668;2023-07-08T12:38:53;4.60;;;4.10;;
22070;SDS011;11200;51.488;6.668;2023-07-08T12:43:48;4.15;;;3.67;;
22070;SDS011;11200;51.488;6.668;2023-07-08T12:46:16;3.72;;;3.40;;
22070;SDS011;11200;51.488;6.668;2023-07-08T12:48:43;5.13;;;3.97;;
22070;SDS011;11200;51.488;6.668;2023-07-08T12:51:13;5.13;;;4.03;;
22070;SDS011;11200;51.488;6.668;2023-07-08T12:53:41;4.07;;;3.67;;
22070;SDS011;11200;51.488;6.668;2023-07-08T12:56:08;4.13;;;3.72;;
22070;SDS011;11200;51.488;6.668;2023-07-08T12:58:35;3.90;;;3.50;;
22070;SDS011;11200;51.488;6.668;2023-07-08T13:01:04;4.55;;;4.13;;
22070;SDS011;11200;51.488;6.668;2023-07-08T13:03:35;4.45;;;3.85;;
22070;SDS011;11200;51.488;6.668;2023-07-08T13:06:05;5.25;;;3.78;;
22070;SDS011;11200;51.488;6.668;2023-07-08T13:08:35;4.43;;;3.80;;
22070;SDS011;11200;51.488;6.668;2023-07-08T13:11:02;4.28;;;3.50;;
22070;SDS011;11200;51.488;6.668;2023-07-08T13:13:37;4.30;;;3.90;;
22070;SDS011;11200;51.488;6.668;2023-07-08T13:16:09;5.32;;;4.00;;
22070;SDS011;11200;51.488;6.668;2023-07-08T13:18:37;3.55;;;3.25;;
22070;SDS011;11200;51.488;6.668;2023-07-08T13:21:05;5.13;;;3.17;;
22070;SDS011;11200;51.488;6.668;2023-07-08T13:23:35;4.50;;;3.50;;
22070;SDS011;11200;51.488;6.668;2023-07-08T13:26:01;4.28;;;3.63;;
22070;SDS011;11200;51.488;6.668;2023-07-08T13:28:40;3.70;;;3.35;;
22070;SDS011;11200;51.488;6.668;2023-07-08T13:31:22;5.85;;;3.80;;
22070;SDS011;11200;51.488;6.668;2023-07-08T13:33:49;5.45;;;3.70;;
22070;SDS011;11200;51.488;6.668;2023-07-08T13:36:17;4.13;;;3.67;;
22070;SDS011;11200;51.488;6.668;2023-07-08T13:38:50;4.53;;;3.95;;
22070;SDS011;11200;51.488;6.668;2023-07-08T13:41:20;3.67;;;3.20;;
22070;SDS011;11200;51.488;6.668;2023-07-08T13:43:47;4.20;;;3.80;;
22070;SDS011;11200;51.488;6.668;2023-07-08T13:46:30;3.85;;;3.45;;
22070;SDS011;11200;51.488;6.668;2023-07-08T13:49:10;3.70;;;3.40;;
22070;SDS011;11200;51.488;6.668;2023-07-08T13:51:39;4.10;;;3.70;;
22070;SDS011;11200;51.488;6.668;2023-07-08T13:54:20;4.00;;;3.60;;
22070;SDS011;11200;51.488;6.668;2023-07-08T13:56:48;3.70;;;3.38;;
22070;SDS011;11200;51.488;6.668;2023-07-08T13:59:17;4.10;;;3.70;;
22070;SDS011;11200;51.488;6.668;2023-07-08T14:01:48;4.03;;;3.63;;
22070;SDS011;11200;51.488;6.668;2023-07-08T14:04:18;4.25;;;3.85;;
22070;SDS011;11200;51.488;6.668;2023-07-08T14:06:46;5.28;;;3.95;;
22070;SDS011;11200;51.488;6.668;2023-07-08T14:09:14;3.80;;;3.50;;
22070;SDS011;11200;51.488;6.668;2023-07-08T14:11:42;4.10;;;3.55;;
22070;SDS011;11200;51.488;6.668;2023-07-08T14:14:10;4.35;;;3.95;;
22070;SDS011;11200;51.488;6.668;2023-07-08T14:16:37;4.85;;;3.65;;
22070;SDS011;11200;51.488;6.668;2023-07-08T14:19:05;4.75;;;3.88;;
22070;SDS011;11200;51.488;6.668;2023-07-08T14:21:35;3.80;;;3.50;;
22070;SDS011;11200;51.488;6.668;2023-07-08T14:24:08;5.32;;;4.05;;
22070;SDS011;11200;51.488;6.668;2023-07-08T14:26:38;4.65;;;3.80;;
22070;SDS011;11200;51.488;6.668;2023-07-08T14:29:08;5.10;;;3.88;;
22070;SDS011;11200;51.488;6.668;2023-07-08T14:31:34;4.93;;;3.60;;
22070;SDS011;11200;51.488;6.668;2023-07-08T14:34:02;3.83;;;3.40;;
22070;SDS011;11200;51.488;6.668;2023-07-08T14:36:37;5.25;;;3.72;;
22070;SDS011;11200;51.488;6.668;2023-07-08T14:39:11;3.42;;;3.13;;
22070;SDS011;11200;51.488;6.668;2023-07-08T14:41:41;4.05;;;3.65;;
22070;SDS011;11200;51.488;6.668;2023-07-08T14:44:18;5.30;;;3.92;;
22070;SDS011;11200;51.488;6.668;2023-07-08T14:46:49;5.03;;;3.80;;
22070;SDS011;11200;51.488;6.668;2023-07-08T14:49:17;4.07;;;3.65;;
22070;SDS011;11200;51.488;6.668;2023-07-08T14:51:44;4.63;;;3.97;;
22070;SDS011;11200;51.488;6.668;2023-07-08T14:54:10;3.88;;;3.58;;
22070;SDS011;11200;51.488;6.668;2023-07-08T14:56:36;4.47;;;3.97;;
22070;SDS011;11200;51.488;6.668;2023-07-08T14:59:02;4.95;;;3.45;;
22070;SDS011;11200;51.488;6.668;2023-07-08T15:01:28;4.88;;;3.70;;
22070;SDS011;11200;51.488;6.668;2023-07-08T15:03:55;4.53;;;3.75;;
22070;SDS011;11200;51.488;6.668;2023-07-08T15:06:21;4.22;;;3.67;;
22070;SDS011;11200;51.488;6.668;2023-07-08T15:08:48;4.63;;;4.03;;
22070;SDS011;11200;51.488;6.668;2023-07-08T15:11:14;4.00;;;3.60;;
22070;SDS011;11200;51.488;6.668;2023-07-08T15:13:41;3.63;;;3.22;;
22070;SDS011;11200;51.488;6.668;2023-07-08T15:16:13;4.32;;;3.72;;
22070;SDS011;11200;51.488;6.668;2023-07-08T15:18:41;4.05;;;3.65;;
22070;SDS011;11200;51.488;6.668;2023-07-08T15:21:14;4.25;;;3.85;;
22070;SDS011;11200;51.488;6.668;2023-07-08T15:23:40;4.03;;;3.45;;
22070;SDS011;11200;51.488;6.668;2023-07-08T15:26:09;4.45;;;3.95;;
22070;SDS011;11200;51.488;6.668;2023-07-08T15:28:39;4.05;;;3.50;;
22070;SDS011;11200;51.488;6.668;2023-07-08T15:31:17;4.00;;;3.55;;
22070;SDS011;11200;51.488;6.668;2023-07-08T15:33:52;4.00;;;3.60;;
22070;SDS011;11200;51.488;6.668;2023-07-08T15:36:20;5.40;;;3.95;;
22070;SDS011;11200;51.488;6.668;2023-07-08T15:38:48;3.85;;;3.53;;
22070;SDS011;11200;51.488;6.668;2023-07-08T15:43:48;4.20;;;3.80;;
22070;SDS011;11200;51.488;6.668;2023-07-08T15:46:14;4.15;;;3.75;;
22070;SDS011;11200;51.488;6.668;2023-07-08T15:48:40;4.63;;;3.55;;
22070;SDS011;11200;51.488;6.668;2023-07-08T15:51:07;4.00;;;3.67;;
22070;SDS011;11200;51.488;6.668;2023-07-08T15:53:33;4.70;;;4.18;;
22070;SDS011;11200;51.488;6.668;2023-07-08T15:55:59;4.55;;;3.70;;
22070;SDS011;11200;51.488;6.668;2023-07-08T15:58:26;4.32;;;3.72;;
22070;SDS011;11200;51.488;6.668;2023-07-08T16:00:54;4.40;;;3.97;;
22070;SDS011;11200;51.488;6.668;2023-07-08T16:03:24;4.68;;;4.18;;
22070;SDS011;11200;51.488;6.668;2023-07-08T16:05:51;4.15;;;3.75;;
22070;SDS011;11200;51.488;6.668;2023-07-08T16:08:18;4.00;;;3.53;;
22070;SDS011;11200;51.488;6.668;2023-07-08T16:10:47;4.72;;;3.88;;
22070;SDS011;11200;51.488;6.668;2023-07-08T16:13:31;4.20;;;3.80;;